Time;durP1;ratioP1;P1;durP2;ratioP2;P2;SDS_P1;SDS_P2;PMS_P1;PMS_P2;Temp;Humidity;BMP_temperature;BMP_pressure;BME280_temperature;BME280_humidity;BME280_pressure;Samples;Min_cycle;Max_cycle;Signal;HPM_P1;HPM_P2
2021/12/02 00:01:16;;;;;;;;;;;5.40;99.90;;;;;;10386095;28;85328;-61
2021/12/02 00:06:18;;;;;;;;;;;5.50;99.90;;;;;;10371617;28;84036;-61
2021/12/02 00:11:19;;;;;;;;;;;5.50;99.90;;;;;;10372168;28;84114;-59
2021/12/02 00:16:26;;;;;;;;;;;5.50;99.90;;;;;;10371922;28;83202;-59
2021/12/02 00:21:26;;;;;;;;;;;5.50;99.90;;;;;;10371775;28;84979;-61
2021/12/02 00:26:28;;;;;;;;;;;5.50;99.90;;;;;;10372268;28;83469;-59
2021/12/02 00:31:30;;;;;;;;;;;5.40;99.90;;;;;;10372953;28;84030;-62
2021/12/02 00:42:47;;;;;;;;;;;5.50;99.90;;;;;;10369990;28;84149;-60
2021/12/02 00:53:52;;;;;;;;;;;5.40;99.90;;;;;;10368066;28;84562;-60
2021/12/02 00:58:53;;;;;;;;;;;5.30;99.90;;;;;;10368400;28;84074;-63
2021/12/02 01:03:55;;;;;;;;;;;5.30;99.90;;;;;;10351492;28;87203;-58
2021/12/02 01:08:56;;;;;;;;;;;5.30;99.90;;;;;;10369481;28;85016;-57
2021/12/02 01:13:56;;;;;;;;;;;5.30;99.90;;;;;;10377072;28;84045;-59
2021/12/02 01:18:57;;;;;;;;;;;5.20;99.90;;;;;;10375874;28;84159;-57
2021/12/02 01:23:58;;;;;;;;;;;5.10;99.90;;;;;;10374476;28;86439;-58
2021/12/02 01:29:00;;;;;;;;;;;5.00;99.90;;;;;;10376261;28;84158;-56
2021/12/02 01:34:02;;;;;;;;;;;5.00;99.90;;;;;;10376385;28;83936;-59
2021/12/02 01:39:04;;;;;;;;;;;5.00;99.90;;;;;;10374995;28;84081;-58
2021/12/02 01:44:08;;;;;;;;;;;5.00;99.90;;;;;;10375853;28;84171;-59
2021/12/02 01:49:10;;;;;;;;;;;5.10;99.90;;;;;;10375057;28;84891;-55
2021/12/02 01:54:15;;;;;;;;;;;5.10;99.90;;;;;;10375460;28;85022;-57
2021/12/02 01:59:18;;;;;;;;;;;5.10;99.90;;;;;;10374312;28;84185;-62
2021/12/02 02:04:20;;;;;;;;;;;5.10;99.90;;;;;;10374725;28;84089;-61
2021/12/02 02:09:22;;;;;;;;;;;5.00;99.90;;;;;;10374551;28;84134;-57
2021/12/02 02:14:24;;;;;;;;;;;4.90;99.90;;;;;;10374948;28;85379;-58
2021/12/02 02:19:29;;;;;;;;;;;4.80;99.90;;;;;;10374804;28;84177;-57
2021/12/02 02:24:30;;;;;;;;;;;4.90;99.90;;;;;;10390411;28;87016;-57
2021/12/02 02:29:31;;;;;;;;;;;4.90;99.90;;;;;;10388953;28;86648;-57
2021/12/02 02:34:31;;;;;;;;;;;4.90;99.90;;;;;;10374589;28;84051;-55
2021/12/02 02:39:34;;;;;;;;;;;4.90;99.90;;;;;;10374130;28;84234;-58
2021/12/02 02:44:35;;;;;;;;;;;4.90;99.90;;;;;;10374211;28;85059;-57
2021/12/02 02:49:36;;;;;;;;;;;4.90;99.90;;;;;;10373551;28;84767;-58
2021/12/02 02:54:36;;;;;;;;;;;4.80;99.90;;;;;;10372321;28;85395;-58
2021/12/02 03:05:15;;;;;;;;;;;4.40;99.90;;;;;;10372911;28;84695;-57
2021/12/02 03:10:26;;;;;;;;;;;4.40;99.90;;;;;;10372419;28;84784;-55
2021/12/02 03:20:46;;;;;;;;;;;4.60;99.90;;;;;;10372625;28;84921;-59
2021/12/02 03:25:46;;;;;;;;;;;4.70;99.90;;;;;;10372023;28;85080;-62
2021/12/02 03:30:47;;;;;;;;;;;4.80;99.90;;;;;;10372173;28;84896;-57
2021/12/02 03:35:47;;;;;;;;;;;4.80;99.90;;;;;;10371404;28;84980;-57
2021/12/02 03:40:48;;;;;;;;;;;4.90;99.90;;;;;;10370541;28;84607;-57
2021/12/02 03:45:49;;;;;;;;;;;4.90;99.90;;;;;;10362563;28;84923;-57
2021/12/02 03:50:51;;;;;;;;;;;5.00;99.90;;;;;;10363604;28;85112;-57
2021/12/02 03:55:52;;;;;;;;;;;5.00;99.90;;;;;;10357997;28;84323;-57
2021/12/02 04:00:52;;;;;;;;;;;4.90;99.90;;;;;;10372094;22;84723;-53
2021/12/02 04:05:53;;;;;;;;;;;4.90;99.90;;;;;;10327240;28;84160;-54
2021/12/02 04:10:59;;;;;;;;;;;4.90;99.90;;;;;;10325894;28;84948;-54
2021/12/02 04:16:03;;;;;;;;;;;4.90;99.90;;;;;;10327101;28;84069;-54
2021/12/02 04:21:04;;;;;;;;;;;4.80;99.90;;;;;;10326933;28;84890;-55
2021/12/02 04:26:04;;;;;;;;;;;4.80;99.90;;;;;;10327332;28;84146;-55
2021/12/02 04:31:05;;;;;;;;;;;4.80;99.90;;;;;;10327167;28;84940;-55
2021/12/02 04:36:06;;;;;;;;;;;4.70;99.90;;;;;;10327138;28;83974;-52
2021/12/02 04:41:07;;;;;;;;;;;4.70;99.90;;;;;;10324981;28;84265;-53
2021/12/02 04:46:07;;;;;;;;;;;4.60;99.90;;;;;;10325621;28;84835;-56
2021/12/02 04:51:08;;;;;;;;;;;4.50;99.90;;;;;;10324985;28;84083;-52
2021/12/02 04:56:08;;;;;;;;;;;4.50;99.90;;;;;;10325931;28;84639;-54
2021/12/02 05:01:09;;;;;;;;;;;4.60;99.90;;;;;;10325463;28;85249;-49
2021/12/02 05:06:09;;;;;;;;;;;4.60;99.90;;;;;;10325437;28;84371;-48
2021/12/02 05:11:10;;;;;;;;;;;4.60;99.90;;;;;;10323162;28;84928;-55
2021/12/02 05:16:11;;;;;;;;;;;4.60;99.90;;;;;;10320249;28;84814;-52
2021/12/02 05:21:12;;;;;;;;;;;4.60;99.90;;;;;;10302619;28;84149;-53
2021/12/02 05:26:12;;;;;;;;;;;4.50;99.90;;;;;;10305199;28;84890;-55
2021/12/02 05:31:13;;;;;;;;;;;4.40;99.90;;;;;;10302871;28;84447;-56
2021/12/02 05:36:13;;;;;;;;;;;4.40;99.90;;;;;;10328460;28;84215;-55
2021/12/02 05:41:15;;;;;;;;;;;4.40;99.90;;;;;;10317395;28;84928;-56
2021/12/02 05:46:15;;;;;;;;;;;4.30;99.90;;;;;;10323049;28;84307;-56
2021/12/02 05:51:16;;;;;;;;;;;4.30;99.90;;;;;;10318675;28;84921;-56
2021/12/02 05:56:16;;;;;;;;;;;4.30;99.90;;;;;;10326283;28;84788;-54
2021/12/02 06:01:17;;;;;;;;;;;4.30;99.90;;;;;;10322596;28;84981;-53
2021/12/02 06:06:17;;;;;;;;;;;4.30;99.90;;;;;;10321354;28;84753;-49
2021/12/02 06:11:18;;;;;;;;;;;4.20;99.90;;;;;;10328442;28;84664;-52
2021/12/02 06:16:20;;;;;;;;;;;4.30;99.90;;;;;;10334068;28;84209;-54
2021/12/02 06:21:21;;;;;;;;;;;4.20;99.90;;;;;;10327567;28;86849;-54
2021/12/02 06:26:22;;;;;;;;;;;4.20;99.90;;;;;;10329149;28;84859;-54
2021/12/02 06:31:24;;;;;;;;;;;4.20;99.90;;;;;;10326219;28;84324;-52
2021/12/02 06:36:24;;;;;;;;;;;4.20;99.90;;;;;;10328855;28;84845;-53
2021/12/02 06:41:25;;;;;;;;;;;4.20;99.90;;;;;;10327374;28;84310;-50
2021/12/02 06:46:28;;;;;;;;;;;4.20;99.90;;;;;;10327186;28;84045;-48
2021/12/02 06:51:29;;;;;;;;;;;4.10;99.90;;;;;;10325477;28;86102;-49
2021/12/02 06:56:29;;;;;;;;;;;4.10;99.90;;;;;;10326178;28;84219;-53
2021/12/02 07:01:30;;;;;;;;;;;4.00;99.90;;;;;;10322834;28;87108;-49
2021/12/02 07:06:30;;;;;;;;;;;4.00;99.90;;;;;;10321364;28;84885;-53
2021/12/02 07:11:31;;;;;;;;;;;4.00;99.90;;;;;;10327707;28;84395;-50
2021/12/02 07:16:32;;;;;;;;;;;4.00;99.90;;;;;;10329661;28;84724;-52
2021/12/02 07:21:36;;;;;;;;;;;4.00;99.90;;;;;;10324669;28;84355;-59
2021/12/02 07:26:41;;;;;;;;;;;4.10;99.90;;;;;;10309684;28;86137;-59
2021/12/02 07:31:42;;;;;;;;;;;4.10;99.90;;;;;;10308281;28;85003;-55
2021/12/02 07:36:43;;;;;;;;;;;4.20;99.90;;;;;;10305124;28;84738;-56
2021/12/02 07:41:44;;;;;;;;;;;4.20;99.90;;;;;;10309810;28;84236;-54
2021/12/02 07:46:44;;;;;;;;;;;4.30;99.90;;;;;;10323469;28;84145;-58
2021/12/02 07:51:48;;;;;;;;;;;4.40;99.90;;;;;;10319298;28;84929;-55
2021/12/02 07:56:49;;;;;;;;;;;4.40;99.90;;;;;;10308290;28;87891;-58
2021/12/02 08:01:49;;;;;;;;;;;4.40;99.90;;;;;;10321484;28;85913;-54
2021/12/02 08:06:50;;;;;;;;;;;4.30;99.90;;;;;;10323406;28;85843;-52
2021/12/02 08:11:51;;;;;;;;;;;4.30;99.90;;;;;;10327411;28;84948;-54
2021/12/02 08:16:51;;;;;;;;;;;4.30;99.90;;;;;;10318548;28;84790;-54
2021/12/02 08:21:52;;;;;;;;;;;4.30;99.90;;;;;;10326958;28;84228;-51
2021/12/02 08:26:53;;;;;;;;;;;4.40;99.90;;;;;;10326208;28;84886;-50
2021/12/02 08:31:54;;;;;;;;;;;4.40;99.90;;;;;;10327423;28;84122;-54
2021/12/02 08:36:55;;;;;;;;;;;4.40;99.90;;;;;;10325978;28;84868;-54
2021/12/02 08:41:57;;;;;;;;;;;4.40;99.90;;;;;;10327917;28;84242;-54
2021/12/02 08:46:57;;;;;;;;;;;4.50;99.90;;;;;;10327644;28;83996;-56
2021/12/02 08:51:58;;;;;;;;;;;4.40;99.90;;;;;;10327130;28;83957;-55
2021/12/02 08:56:58;;;;;;;;;;;4.10;99.90;;;;;;10327082;28;84966;-51
2021/12/02 09:01:59;;;;;;;;;;;4.10;99.90;;;;;;10326670;28;84257;-50
2021/12/02 09:07:00;;;;;;;;;;;4.30;99.90;;;;;;10326317;28;84342;-54
2021/12/02 09:12:00;;;;;;;;;;;5.00;99.90;;;;;;10326997;28;84085;-51
2021/12/02 09:17:01;;;;;;;;;;;5.00;99.90;;;;;;10326591;28;84222;-52
2021/12/02 09:22:02;;;;;;;;;;;4.80;99.90;;;;;;10326086;28;84811;-55
2021/12/02 09:27:03;;;;;;;;;;;4.80;99.90;;;;;;10326147;28;84762;-54
2021/12/02 09:32:04;;;;;;;;;;;4.80;99.90;;;;;;10330252;28;84270;-53
2021/12/02 09:37:04;;;;;;;;;;;4.70;99.90;;;;;;10331070;28;86741;-53
2021/12/02 09:42:05;;;;;;;;;;;4.80;99.90;;;;;;10332610;28;84135;-51
2021/12/02 09:47:06;;;;;;;;;;;4.60;99.90;;;;;;10330951;28;86836;-53
2021/12/02 09:52:11;;;;;;;;;;;4.40;99.90;;;;;;10332804;28;84842;-54
2021/12/02 09:57:16;;;;;;;;;;;4.30;99.90;;;;;;10332509;28;84085;-54
2021/12/02 10:02:19;;;;;;;;;;;4.20;99.90;;;;;;10332770;28;84316;-51
2021/12/02 10:07:27;;;;;;;;;;;4.30;99.90;;;;;;10330174;28;84011;-54
2021/12/02 10:12:29;;;;;;;;;;;4.50;99.90;;;;;;10331697;28;84875;-55
2021/12/02 10:17:33;;;;;;;;;;;4.60;99.90;;;;;;10331835;28;84885;-51
2021/12/02 10:22:34;;;;;;;;;;;4.50;99.90;;;;;;10331404;28;84115;-51
2021/12/02 10:27:34;;;;;;;;;;;4.20;99.90;;;;;;10330884;28;84094;-50
2021/12/02 10:32:36;;;;;;;;;;;4.10;99.90;;;;;;10329088;28;84102;-52
2021/12/02 10:37:40;;;;;;;;;;;4.10;99.90;;;;;;10330462;28;84099;-48
2021/12/02 10:42:42;;;;;;;;;;;4.00;99.90;;;;;;10327216;28;85321;-53
2021/12/02 10:47:47;;;;;;;;;;;3.90;99.90;;;;;;10329885;28;84154;-54
2021/12/02 10:52:48;;;;;;;;;;;4.00;99.90;;;;;;10330417;28;85020;-52
2021/12/02 10:57:51;;;;;;;;;;;4.20;99.90;;;;;;10330058;28;84000;-52
2021/12/02 11:02:53;;;;;;;;;;;4.30;99.90;;;;;;10329678;28;84872;-55
2021/12/02 11:07:58;;;;;;;;;;;4.40;99.90;;;;;;10328344;28;84935;-55
2021/12/02 11:12:58;;;;;;;;;;;4.40;99.90;;;;;;10328167;28;87090;-52
2021/12/02 11:18:06;;;;;;;;;;;4.40;99.90;;;;;;10329948;28;84044;-51
2021/12/02 11:23:08;;;;;;;;;;;4.40;99.90;;;;;;10329733;28;84275;-54
2021/12/02 11:28:09;;;;;;;;;;;4.30;99.90;;;;;;10329284;28;84837;-51
2021/12/02 11:33:09;;;;;;;;;;;4.30;99.90;;;;;;10329021;28;84939;-55
2021/12/02 11:38:18;;;;;;;;;;;4.20;99.90;;;;;;10329124;28;84944;-53
2021/12/02 11:43:20;;;;;;;;;;;4.20;99.90;;;;;;10328733;28;85132;-52
2021/12/02 11:48:25;;;;;;;;;;;4.20;99.90;;;;;;10328531;28;84108;-54
2021/12/02 11:53:26;;;;;;;;;;;4.20;99.90;;;;;;10328048;28;84646;-52
2021/12/02 11:58:27;;;;;;;;;;;4.20;99.90;;;;;;10328343;28;84895;-52
2021/12/02 12:03:32;;;;;;;;;;;4.20;99.90;;;;;;10327929;28;84959;-51
2021/12/02 12:08:32;;;;;;;;;;;4.20;99.90;;;;;;10328207;28;84173;-51
2021/12/02 12:13:44;;;;;;;;;;;4.30;99.90;;;;;;10328559;28;85021;-55
2021/12/02 12:18:45;;;;;;;;;;;4.50;99.90;;;;;;10328050;28;84169;-51
2021/12/02 12:24:06;;;;;;;;;;;4.70;99.90;;;;;;10327819;28;84701;-52
2021/12/02 12:29:07;;;;;;;;;;;4.70;99.90;;;;;;10328096;28;84846;-52
2021/12/02 12:34:27;;;;;;;;;;;4.60;99.90;;;;;;10314432;28;87265;-57
2021/12/02 12:39:32;;;;;;;;;;;4.60;99.90;;;;;;10326452;28;85238;-55
2021/12/02 12:44:49;;;;;;;;;;;4.20;99.90;;;;;;10327219;28;85056;-55
2021/12/02 12:50:10;;;;;;;;;;;4.20;99.90;;;;;;10326070;28;84040;-53
2021/12/02 12:55:17;;;;;;;;;;;4.30;99.90;;;;;;10328103;28;84826;-54
2021/12/02 13:00:36;;;;;;;;;;;4.40;99.90;;;;;;10325306;28;84348;-56
2021/12/02 13:06:00;;;;;;;;;;;4.40;99.90;;;;;;10326529;28;84932;-57
2021/12/02 13:11:02;;;;;;;;;;;4.50;99.90;;;;;;10326929;28;84973;-53
2021/12/02 13:16:16;;;;;;;;;;;4.60;99.90;;;;;;10327180;28;85236;-55
2021/12/02 13:21:17;;;;;;;;;;;4.60;99.90;;;;;;10326787;28;86816;-55
2021/12/02 13:26:18;;;;;;;;;;;4.80;99.90;;;;;;10326591;28;84000;-56
2021/12/02 13:31:20;;;;;;;;;;;4.70;99.90;;;;;;10325865;28;86918;-52
2021/12/02 13:36:41;;;;;;;;;;;4.80;99.90;;;;;;10324894;28;84131;-54
2021/12/02 13:41:47;;;;;;;;;;;4.80;99.90;;;;;;10325323;28;84091;-52
2021/12/02 13:46:50;;;;;;;;;;;4.80;99.90;;;;;;10326262;28;85156;-51
2021/12/02 13:57:22;;;;;;;;;;;4.90;99.90;;;;;;10325831;28;83962;-55
2021/12/02 14:02:24;;;;;;;;;;;4.90;99.90;;;;;;10324612;28;84330;-52
2021/12/02 14:07:26;;;;;;;;;;;4.80;99.90;;;;;;10326613;28;84988;-57
2021/12/02 14:12:36;;;;;;;;;;;4.80;99.90;;;;;;10307805;28;86082;-57
2021/12/02 14:17:55;;;;;;;;;;;4.80;99.90;;;;;;10331137;28;84788;-56
2021/12/02 14:22:55;;;;;;;;;;;4.90;99.90;;;;;;10333328;28;84082;-54
2021/12/02 14:28:07;;;;;;;;;;;5.00;99.90;;;;;;10316653;28;85367;-54
2021/12/02 14:33:08;;;;;;;;;;;5.00;99.90;;;;;;10330929;28;84956;-51
2021/12/02 14:38:20;;;;;;;;;;;5.00;99.90;;;;;;10331226;28;84721;-56
2021/12/02 14:43:22;;;;;;;;;;;4.80;99.90;;;;;;10329322;28;86926;-55
2021/12/02 14:48:25;;;;;;;;;;;4.80;99.90;;;;;;10330745;28;85380;-53
2021/12/02 14:53:29;;;;;;;;;;;4.80;99.90;;;;;;10331046;28;84847;-56
2021/12/02 14:58:30;;;;;;;;;;;4.80;99.90;;;;;;10312771;28;87079;-56
2021/12/02 15:03:31;;;;;;;;;;;4.80;99.90;;;;;;10331044;28;84878;-56
2021/12/02 15:08:33;;;;;;;;;;;4.70;99.90;;;;;;10330443;28;84921;-57
2021/12/02 15:13:39;;;;;;;;;;;4.70;99.90;;;;;;10330555;28;84201;-54
2021/12/02 15:18:42;;;;;;;;;;;4.70;99.90;;;;;;10329822;28;84100;-56
2021/12/02 15:23:43;;;;;;;;;;;4.10;99.90;;;;;;10328569;28;84220;-56
2021/12/02 15:28:46;;;;;;;;;;;3.50;99.90;;;;;;10328473;28;84212;-57
2021/12/02 15:33:48;;;;;;;;;;;3.20;99.90;;;;;;10328392;28;84133;-56
2021/12/02 15:38:50;;;;;;;;;;;3.00;99.90;;;;;;10329203;28;84062;-57
2021/12/02 15:43:53;;;;;;;;;;;3.00;99.90;;;;;;10330182;28;84933;-56
2021/12/02 15:48:55;;;;;;;;;;;2.90;99.90;;;;;;10329123;28;85278;-53
2021/12/02 15:53:55;;;;;;;;;;;2.90;99.90;;;;;;10336953;28;87138;-55
2021/12/02 15:58:56;;;;;;;;;;;2.90;99.90;;;;;;10351380;28;87170;-55
2021/12/02 16:04:04;;;;;;;;;;;2.90;99.90;;;;;;10369295;28;84207;-52
2021/12/02 16:09:39;;;;;;;;;;;2.90;99.90;;;;;;10322762;28;84272;-51
2021/12/02 16:14:39;;;;;;;;;;;2.90;99.90;;;;;;10321496;28;85158;-49
2021/12/02 16:19:40;;;;;;;;;;;2.80;99.90;;;;;;10318895;28;84683;-52
2021/12/02 16:24:40;;;;;;;;;;;2.80;99.90;;;;;;10327269;28;84930;-53
2021/12/02 16:29:41;;;;;;;;;;;2.70;99.90;;;;;;10316238;28;84222;-53
2021/12/02 16:34:42;;;;;;;;;;;2.80;99.90;;;;;;10327084;28;84375;-53
2021/12/02 16:40:01;;;;;;;;;;;2.70;99.90;;;;;;10321325;28;84965;-54
2021/12/02 16:45:02;;;;;;;;;;;2.70;99.90;;;;;;10326441;28;84513;-50
2021/12/02 16:50:04;;;;;;;;;;;2.80;99.90;;;;;;10324097;28;85025;-52
2021/12/02 16:55:06;;;;;;;;;;;2.70;99.90;;;;;;10327129;28;84312;-55
2021/12/02 17:00:08;;;;;;;;;;;2.60;99.90;;;;;;10322615;28;86256;-53
2021/12/02 17:05:09;;;;;;;;;;;2.60;99.90;;;;;;10326329;28;85219;-55
2021/12/02 17:10:11;;;;;;;;;;;2.60;99.90;;;;;;10324403;28;84959;-54
2021/12/02 17:15:11;;;;;;;;;;;2.60;99.90;;;;;;10308649;28;84906;-53
2021/12/02 17:20:12;;;;;;;;;;;2.80;99.90;;;;;;10300891;28;84116;-54
2021/12/02 17:25:12;;;;;;;;;;;2.70;99.90;;;;;;10292650;28;85366;-55
2021/12/02 17:30:15;;;;;;;;;;;2.80;99.90;;;;;;10299978;28;84340;-50
2021/12/02 17:35:17;;;;;;;;;;;2.70;99.90;;;;;;10306511;28;85115;-50
2021/12/02 17:40:20;;;;;;;;;;;2.80;99.90;;;;;;10301261;28;84700;-49
2021/12/02 17:45:22;;;;;;;;;;;3.00;99.90;;;;;;10324149;28;84084;-49
2021/12/02 17:50:25;;;;;;;;;;;3.00;99.90;;;;;;10322371;28;86497;-55
2021/12/02 17:55:26;;;;;;;;;;;3.00;99.90;;;;;;10331852;28;85008;-50
2021/12/02 18:00:27;;;;;;;;;;;2.80;99.90;;;;;;10329237;28;83969;-51
2021/12/02 18:05:28;;;;;;;;;;;2.70;99.90;;;;;;10302972;28;85285;-56
2021/12/02 18:10:50;;;;;;;;;;;2.70;99.90;;;;;;10327105;28;84895;-53
2021/12/02 18:15:51;;;;;;;;;;;2.80;99.90;;;;;;10327348;28;85574;-52
2021/12/02 18:20:52;;;;;;;;;;;2.80;99.90;;;;;;10327198;28;85088;-53
2021/12/02 18:25:53;;;;;;;;;;;2.80;99.90;;;;;;10324745;28;84898;-51
2021/12/02 18:30:54;;;;;;;;;;;2.80;99.90;;;;;;10324054;28;84625;-63
2021/12/02 18:35:54;;;;;;;;;;;2.70;99.90;;;;;;10327247;28;84890;-56
2021/12/02 18:40:55;;;;;;;;;;;2.60;99.90;;;;;;10324302;28;84375;-61
2021/12/02 18:45:56;;;;;;;;;;;2.80;99.90;;;;;;10316174;28;84923;-62
2021/12/02 18:50:57;;;;;;;;;;;2.70;99.90;;;;;;10328025;28;85465;-63
2021/12/02 18:55:59;;;;;;;;;;;2.70;99.90;;;;;;10327046;28;84928;-62
2021/12/02 19:01:01;;;;;;;;;;;2.70;99.90;;;;;;10327867;28;84888;-62
2021/12/02 19:06:22;;;;;;;;;;;2.70;99.90;;;;;;10327206;28;84825;-62
2021/12/02 19:27:21;;;;;;;;;;;2.70;99.90;;;;;;10324386;28;84909;-62
2021/12/02 19:32:21;;;;;;;;;;;2.70;99.90;;;;;;10325236;28;86924;-62
2021/12/02 19:37:22;;;;;;;;;;;2.60;99.90;;;;;;10311020;28;86073;-61
2021/12/02 19:42:23;;;;;;;;;;;2.60;99.90;;;;;;10324623;28;86808;-63
2021/12/02 19:47:24;;;;;;;;;;;2.60;99.90;;;;;;10327269;28;84592;-59
2021/12/02 19:52:25;;;;;;;;;;;2.60;99.90;;;;;;10325187;28;86286;-60
2021/12/02 19:57:25;;;;;;;;;;;2.60;99.90;;;;;;10325726;28;84762;-57
2021/12/02 20:02:26;;;;;;;;;;;2.50;99.90;;;;;;10307698;28;86291;-54
2021/12/02 20:07:27;;;;;;;;;;;2.30;99.90;;;;;;10327976;28;84073;-54
2021/12/02 20:12:28;;;;;;;;;;;2.30;99.90;;;;;;10328209;28;84351;-53
2021/12/02 20:17:31;;;;;;;;;;;2.20;99.90;;;;;;10327312;28;89135;-57
2021/12/02 20:22:33;;;;;;;;;;;2.20;99.90;;;;;;10344370;28;84351;-56
2021/12/02 20:27:35;;;;;;;;;;;2.10;99.90;;;;;;10340755;28;85113;-55
2021/12/02 20:32:37;;;;;;;;;;;2.10;99.90;;;;;;10331308;28;84267;-54
2021/12/02 20:37:38;;;;;;;;;;;2.00;99.90;;;;;;10345086;28;85716;-55
2021/12/02 20:42:39;;;;;;;;;;;2.00;99.90;;;;;;10329485;28;85911;-53
2021/12/02 20:47:43;;;;;;;;;;;2.00;99.90;;;;;;10344427;28;84909;-54
2021/12/02 20:52:45;;;;;;;;;;;2.00;99.90;;;;;;10343084;28;84259;-52
2021/12/02 20:57:46;;;;;;;;;;;1.80;99.90;;;;;;10342507;28;84135;-52
2021/12/02 21:02:46;;;;;;;;;;;1.80;99.90;;;;;;10328257;28;87417;-49
2021/12/02 21:07:47;;;;;;;;;;;1.70;99.90;;;;;;10350498;28;84805;-54
2021/12/02 21:12:52;;;;;;;;;;;1.60;99.90;;;;;;10347265;28;84283;-55
2021/12/02 21:17:53;;;;;;;;;;;1.50;99.90;;;;;;10341820;28;84228;-53
2021/12/02 21:22:56;;;;;;;;;;;1.50;99.90;;;;;;10347382;28;84911;-54
2021/12/02 21:27:57;;;;;;;;;;;1.50;99.90;;;;;;10330498;28;86444;-55
2021/12/02 21:32:58;;;;;;;;;;;1.50;99.90;;;;;;10334615;28;85357;-53
2021/12/02 21:38:00;;;;;;;;;;;1.30;99.90;;;;;;10332604;28;84089;-56
2021/12/02 21:43:01;;;;;;;;;;;1.30;99.90;;;;;;10334878;28;84744;-57
2021/12/02 21:48:03;;;;;;;;;;;1.30;99.90;;;;;;10317293;28;84165;-55
2021/12/02 21:53:04;;;;;;;;;;;1.10;99.90;;;;;;10333441;28;84259;-52
2021/12/02 21:58:07;;;;;;;;;;;1.00;99.90;;;;;;10332222;28;84871;-53
2021/12/02 22:03:09;;;;;;;;;;;1.00;99.90;;;;;;10373815;22;84927;-49
2021/12/02 22:08:09;;;;;;;;;;;1.00;99.90;;;;;;10374637;28;84299;-51
2021/12/02 22:13:10;;;;;;;;;;;1.00;99.90;;;;;;10373844;28;84630;-53
2021/12/02 22:18:13;;;;;;;;;;;1.00;99.90;;;;;;10374120;28;84988;-52
2021/12/02 22:23:13;;;;;;;;;;;1.10;99.90;;;;;;10374341;28;84527;-52
2021/12/02 22:28:14;;;;;;;;;;;1.10;99.90;;;;;;10373789;28;84434;-50
2021/12/02 22:33:15;;;;;;;;;;;1.10;99.90;;;;;;10373889;28;84951;-51
2021/12/02 22:38:15;;;;;;;;;;;1.10;99.90;;;;;;10372019;28;85758;-53
2021/12/02 22:43:16;;;;;;;;;;;1.10;99.90;;;;;;10373456;28;84486;-53
2021/12/02 22:48:17;;;;;;;;;;;1.10;99.90;;;;;;10373805;28;84863;-49
2021/12/02 22:53:17;;;;;;;;;;;1.10;99.90;;;;;;10370547;28;84357;-50
2021/12/02 22:58:19;;;;;;;;;;;1.00;99.90;;;;;;10363190;28;86118;-49
2021/12/02 23:03:20;;;;;;;;;;;1.00;99.90;;;;;;10363892;28;84106;-50
2021/12/02 23:08:21;;;;;;;;;;;1.00;99.90;;;;;;10372672;28;84450;-49
2021/12/02 23:13:22;;;;;;;;;;;1.00;99.90;;;;;;10372772;28;84929;-53
2021/12/02 23:18:22;;;;;;;;;;;1.00;99.90;;;;;;10372236;28;84898;-53
2021/12/02 23:23:23;;;;;;;;;;;0.90;99.90;;;;;;10372335;28;84884;-48
2021/12/02 23:28:24;;;;;;;;;;;0.80;99.90;;;;;;10370177;28;84859;-52
2021/12/02 23:33:27;;;;;;;;;;;0.70;99.90;;;;;;10367446;28;84270;-52
2021/12/02 23:38:29;;;;;;;;;;;0.70;99.90;;;;;;10370396;28;86861;-51
2021/12/02 23:43:29;;;;;;;;;;;0.70;99.90;;;;;;10371626;28;85026;-50
2021/12/02 23:48:30;;;;;;;;;;;0.70;99.90;;;;;;10370392;28;86601;-54
2021/12/02 23:53:31;;;;;;;;;;;0.60;99.90;;;;;;10372091;28;85069;-50
2021/12/02 23:58:32;;;;;;;;;;;0.60;99.90;;;;;;10371019;28;84691;-50
